Time;durP1;ratioP1;P1;durP2;ratioP2;P2;SDS_P1;SDS_P2;PMS_P1;PMS_P2;Temp;Humidity;BMP_temperature;BMP_pressure;BME280_temperature;BME280_humidity;BME280_pressure;Samples;Min_cycle;Max_cycle;Signal;HPM_P1;HPM_P2
2021/05/30 00:03:50;;;;;;;7.07;3.90;;;;;;;;;;10523877;28;20639;-67
2021/05/30 00:08:54;;;;;;;8.40;3.97;;;;;;;;;;10515444;28;20243;-68
2021/05/30 00:13:57;;;;;;;8.57;4.10;;;;;;;;;;10530915;28;20834;-68
2021/05/30 00:19:01;;;;;;;8.07;3.60;;;;;;;;;;10516246;28;20655;-69
2021/05/30 00:24:03;;;;;;;8.33;3.97;;;;;;;;;;10525105;28;20298;-69
2021/05/30 00:29:05;;;;;;;7.23;3.90;;;;;;;;;;10525899;28;20235;-69
2021/05/30 00:34:08;;;;;;;7.43;3.53;;;;;;;;;;10518955;28;20260;-68
2021/05/30 00:39:11;;;;;;;7.27;3.80;;;;;;;;;;10515643;28;20215;-69
2021/05/30 00:44:20;;;;;;;8.33;4.07;;;;;;;;;;10525104;28;20290;-69
2021/05/30 00:49:23;;;;;;;6.53;3.80;;;;;;;;;;10518578;28;20236;-70
2021/05/30 00:54:25;;;;;;;8.63;4.20;;;;;;;;;;10508756;28;20556;-69
2021/05/30 00:59:28;;;;;;;9.00;4.03;;;;;;;;;;10517539;28;20192;-70
2021/05/30 01:04:31;;;;;;;8.17;3.80;;;;;;;;;;10512897;28;20302;-73
2021/05/30 01:09:33;;;;;;;9.63;4.20;;;;;;;;;;10523519;28;20247;-69
2021/05/30 01:14:35;;;;;;;8.27;4.23;;;;;;;;;;10516076;28;20257;-69
2021/05/30 01:19:38;;;;;;;7.10;4.00;;;;;;;;;;10516891;28;20609;-68
2021/05/30 01:24:41;;;;;;;7.63;4.00;;;;;;;;;;10517848;28;20235;-67
2021/05/30 01:29:43;;;;;;;8.17;4.27;;;;;;;;;;10515862;28;20682;-68
2021/05/30 01:34:46;;;;;;;7.83;3.77;;;;;;;;;;10515890;28;20228;-68
2021/05/30 01:39:48;;;;;;;8.53;4.50;;;;;;;;;;10528228;28;20270;-69
2021/05/30 01:44:50;;;;;;;7.80;4.13;;;;;;;;;;10522670;28;20311;-68
2021/05/30 01:49:53;;;;;;;8.43;4.60;;;;;;;;;;10535196;28;20281;-69
2021/05/30 01:54:56;;;;;;;8.30;4.30;;;;;;;;;;10526795;28;20223;-68
2021/05/30 01:59:58;;;;;;;9.83;4.60;;;;;;;;;;10530534;28;20600;-69
2021/05/30 02:05:00;;;;;;;10.23;4.93;;;;;;;;;;10526189;28;20222;-70
2021/05/30 02:10:03;;;;;;;9.20;4.80;;;;;;;;;;10525176;28;20228;-68
2021/05/30 02:15:05;;;;;;;9.03;4.50;;;;;;;;;;10527994;28;20300;-68
2021/05/30 02:20:08;;;;;;;9.43;4.87;;;;;;;;;;10524955;28;20194;-68
2021/05/30 02:25:12;;;;;;;8.63;4.97;;;;;;;;;;10528307;28;20231;-69
2021/05/30 02:30:14;;;;;;;8.87;5.10;;;;;;;;;;10530661;28;20618;-69
2021/05/30 02:35:17;;;;;;;8.97;4.83;;;;;;;;;;10532901;28;20290;-70
2021/05/30 02:40:20;;;;;;;11.10;5.67;;;;;;;;;;10527778;28;20237;-68
2021/05/30 02:45:22;;;;;;;10.40;5.37;;;;;;;;;;10545369;28;20269;-69
2021/05/30 02:50:24;;;;;;;12.63;5.53;;;;;;;;;;10531954;28;20204;-67
2021/05/30 02:55:27;;;;;;;9.70;5.00;;;;;;;;;;10529158;28;20279;-69
2021/05/30 03:00:29;;;;;;;9.43;4.90;;;;;;;;;;10526998;28;20674;-68
2021/05/30 03:05:32;;;;;;;10.77;5.33;;;;;;;;;;10529057;28;20208;-67
2021/05/30 03:10:35;;;;;;;9.90;5.50;;;;;;;;;;10520041;28;20642;-67
2021/05/30 03:15:42;;;;;;;10.77;5.33;;;;;;;;;;10531015;28;20216;-68
2021/05/30 03:20:44;;;;;;;9.67;5.00;;;;;;;;;;10524116;28;20184;-68
2021/05/30 03:25:47;;;;;;;9.73;5.27;;;;;;;;;;10525109;28;20235;-68
2021/05/30 03:30:49;;;;;;;9.27;4.77;;;;;;;;;;10527743;28;20357;-68
2021/05/30 03:35:55;;;;;;;9.60;5.37;;;;;;;;;;10526603;28;20298;-68
2021/05/30 03:41:01;;;;;;;10.27;5.50;;;;;;;;;;10518172;28;20192;-68
2021/05/30 03:46:03;;;;;;;10.10;5.27;;;;;;;;;;10531723;28;20219;-68
2021/05/30 03:51:06;;;;;;;11.10;5.10;;;;;;;;;;10523568;28;20219;-69
2021/05/30 03:56:09;;;;;;;9.70;5.30;;;;;;;;;;10528964;28;20740;-69
2021/05/30 04:01:11;;;;;;;9.70;5.37;;;;;;;;;;10524928;28;20278;-69
2021/05/30 04:06:13;;;;;;;10.20;5.57;;;;;;;;;;10522121;28;20225;-68
2021/05/30 04:11:16;;;;;;;9.07;5.17;;;;;;;;;;10525375;28;20310;-69
2021/05/30 04:16:28;;;;;;;9.63;5.00;;;;;;;;;;10530264;28;20306;-69
2021/05/30 04:21:50;;;;;;;9.80;4.83;;;;;;;;;;10520567;28;20203;-69
2021/05/30 04:27:13;;;;;;;9.40;4.80;;;;;;;;;;10523016;28;20195;-68
2021/05/30 04:32:36;;;;;;;9.13;4.87;;;;;;;;;;10510701;28;20679;-67
2021/05/30 04:37:58;;;;;;;8.63;4.37;;;;;;;;;;10520769;28;20234;-66
2021/05/30 04:43:20;;;;;;;8.20;4.50;;;;;;;;;;10525049;28;20219;-67
2021/05/30 04:48:42;;;;;;;8.40;4.73;;;;;;;;;;10521956;28;20199;-67
2021/05/30 04:54:05;;;;;;;8.10;3.90;;;;;;;;;;10521574;28;20220;-69
2021/05/30 04:59:28;;;;;;;7.37;4.10;;;;;;;;;;10524014;28;20204;-67
2021/05/30 05:04:50;;;;;;;6.87;3.73;;;;;;;;;;10528878;28;20582;-68
2021/05/30 05:10:12;;;;;;;7.53;3.80;;;;;;;;;;10526584;28;20662;-69
2021/05/30 05:15:34;;;;;;;8.93;4.10;;;;;;;;;;10518545;28;20216;-68
2021/05/30 05:20:54;;;;;;;7.40;3.83;;;;;;;;;;10518835;28;20193;-68
2021/05/30 05:26:15;;;;;;;7.70;3.77;;;;;;;;;;10525661;28;20227;-69
2021/05/30 05:31:36;;;;;;;7.30;3.80;;;;;;;;;;10534400;28;20211;-69
2021/05/30 05:36:47;;;;;;;7.17;3.77;;;;;;;;;;10523346;28;20200;-68
2021/05/30 05:41:51;;;;;;;7.87;3.77;;;;;;;;;;10529755;28;20188;-69
2021/05/30 05:47:14;;;;;;;7.80;4.00;;;;;;;;;;10531569;28;20693;-68
2021/05/30 05:52:16;;;;;;;6.97;3.57;;;;;;;;;;10531895;28;20223;-69
2021/05/30 05:57:22;;;;;;;7.20;3.90;;;;;;;;;;10534864;28;20727;-68
2021/05/30 06:02:25;;;;;;;7.47;4.00;;;;;;;;;;10532756;28;20229;-68
2021/05/30 06:07:27;;;;;;;7.40;3.70;;;;;;;;;;10521434;28;20200;-70
2021/05/30 06:12:29;;;;;;;7.70;3.70;;;;;;;;;;10527515;28;20662;-69
2021/05/30 06:17:32;;;;;;;10.17;3.97;;;;;;;;;;10524724;28;20309;-67
2021/05/30 06:22:34;;;;;;;7.70;3.87;;;;;;;;;;10527343;28;20215;-69
2021/05/30 06:27:37;;;;;;;8.70;3.97;;;;;;;;;;10526054;28;20286;-67
2021/05/30 06:32:40;;;;;;;8.20;4.10;;;;;;;;;;10513932;28;20323;-69
2021/05/30 06:37:42;;;;;;;8.87;3.97;;;;;;;;;;10518223;28;20254;-67
2021/05/30 06:42:45;;;;;;;7.57;4.00;;;;;;;;;;10517246;28;20204;-70
2021/05/30 06:47:53;;;;;;;7.20;3.73;;;;;;;;;;10532729;28;20196;-68
2021/05/30 06:52:55;;;;;;;6.63;3.67;;;;;;;;;;10519240;28;20220;-67
2021/05/30 06:57:57;;;;;;;8.03;3.90;;;;;;;;;;10524124;28;20231;-69
2021/05/30 07:03:00;;;;;;;8.90;3.63;;;;;;;;;;10520423;28;20298;-69
2021/05/30 07:08:02;;;;;;;8.17;3.73;;;;;;;;;;10516654;28;20196;-69
2021/05/30 07:13:04;;;;;;;7.30;3.50;;;;;;;;;;10521364;28;20220;-69
2021/05/30 07:18:07;;;;;;;7.33;4.00;;;;;;;;;;10526656;28;20211;-69
2021/05/30 07:23:09;;;;;;;8.07;3.70;;;;;;;;;;10522379;28;20293;-67
2021/05/30 07:28:11;;;;;;;8.23;4.17;;;;;;;;;;10523478;28;20703;-67
2021/05/30 07:33:14;;;;;;;7.57;4.10;;;;;;;;;;10517684;28;20552;-67
2021/05/30 07:38:17;;;;;;;7.67;4.00;;;;;;;;;;10524412;28;20580;-69
2021/05/30 07:43:19;;;;;;;7.33;3.77;;;;;;;;;;10520520;28;20535;-67
2021/05/30 07:48:22;;;;;;;7.50;3.70;;;;;;;;;;10528580;28;20863;-68
2021/05/30 07:53:24;;;;;;;6.33;3.40;;;;;;;;;;10522255;28;20276;-69
2021/05/30 07:58:26;;;;;;;6.87;3.67;;;;;;;;;;10521743;28;20253;-67
2021/05/30 08:03:29;;;;;;;5.05;3.28;;;;;;;;;;10529789;28;20301;-68
2021/05/30 08:08:31;;;;;;;8.02;3.83;;;;;;;;;;10521179;28;20191;-69
2021/05/30 08:13:34;;;;;;;5.18;2.90;;;;;;;;;;10517275;28;20536;-67
2021/05/30 08:18:37;;;;;;;5.57;2.92;;;;;;;;;;10521342;28;20183;-67
2021/05/30 08:23:41;;;;;;;6.35;3.38;;;;;;;;;;10519768;28;20277;-67
2021/05/30 08:28:43;;;;;;;5.05;3.00;;;;;;;;;;10522505;28;20195;-68
2021/05/30 08:33:46;;;;;;;4.43;2.50;;;;;;;;;;10517749;28;20243;-67
2021/05/30 08:38:48;;;;;;;3.55;2.40;;;;;;;;;;10519858;28;20279;-68
2021/05/30 08:43:50;;;;;;;6.03;3.40;;;;;;;;;;10516097;28;20221;-68
2021/05/30 08:48:53;;;;;;;5.38;2.83;;;;;;;;;;10522473;28;20646;-66
2021/05/30 08:53:55;;;;;;;6.03;3.35;;;;;;;;;;10521097;28;20243;-67
2021/05/30 08:58:57;;;;;;;5.18;2.90;;;;;;;;;;10519792;28;20199;-67
2021/05/30 09:04:03;;;;;;;7.50;4.63;;;;;;;;;;10528407;28;20299;-68
2021/05/30 09:09:08;;;;;;;6.07;3.08;;;;;;;;;;10512068;28;20384;-68
2021/05/30 09:14:13;;;;;;;4.15;3.05;;;;;;;;;;10513927;28;20260;-69
2021/05/30 09:19:32;;;;;;;6.25;3.55;;;;;;;;;;10524233;28;20214;-69
2021/05/30 09:24:34;;;;;;;4.43;2.67;;;;;;;;;;10517852;28;20408;-68
2021/05/30 09:29:36;;;;;;;4.13;3.08;;;;;;;;;;10522985;28;20191;-69
2021/05/30 09:34:41;;;;;;;3.53;2.60;;;;;;;;;;10516571;28;20226;-68
2021/05/30 09:39:44;;;;;;;2.95;2.13;;;;;;;;;;10511646;28;20647;-69
2021/05/30 09:44:55;;;;;;;3.67;2.40;;;;;;;;;;10520552;28;20742;-70
2021/05/30 09:49:58;;;;;;;3.85;2.65;;;;;;;;;;10517376;28;20221;-69
2021/05/30 09:55:11;;;;;;;5.82;2.75;;;;;;;;;;10528528;28;20318;-69
2021/05/30 10:00:20;;;;;;;5.55;3.10;;;;;;;;;;10519236;28;20731;-68
2021/05/30 10:05:23;;;;;;;5.13;3.30;;;;;;;;;;10520648;28;20330;-68
2021/05/30 10:10:38;;;;;;;4.57;3.00;;;;;;;;;;10523152;28;20245;-69
2021/05/30 10:15:40;;;;;;;5.28;2.80;;;;;;;;;;10522244;28;20212;-69
2021/05/30 10:20:43;;;;;;;5.50;3.35;;;;;;;;;;10525422;28;20224;-67
2021/05/30 10:25:45;;;;;;;5.72;3.70;;;;;;;;;;10525545;28;20655;-69
2021/05/30 10:31:17;;;;;;;8.60;4.82;;;;;;;;;;10526531;28;20350;-69
2021/05/30 10:36:20;;;;;;;6.88;3.58;;;;;;;;;;10518696;28;20215;-68
2021/05/30 10:41:23;;;;;;;4.78;2.95;;;;;;;;;;10528233;28;20563;-69
2021/05/30 10:46:25;;;;;;;6.72;3.58;;;;;;;;;;10528808;28;20628;-66
2021/05/30 10:51:42;;;;;;;4.72;3.00;;;;;;;;;;10527495;28;20267;-69
2021/05/30 10:56:47;;;;;;;4.63;2.95;;;;;;;;;;10524952;28;20256;-68
2021/05/30 11:01:51;;;;;;;4.90;3.00;;;;;;;;;;10522543;28;20196;-66
2021/05/30 11:06:55;;;;;;;5.20;3.22;;;;;;;;;;10521036;28;20532;-68
2021/05/30 11:12:15;;;;;;;7.28;3.78;;;;;;;;;;10523448;28;20350;-66
2021/05/30 11:17:32;;;;;;;5.57;3.13;;;;;;;;;;10525127;28;20248;-69
2021/05/30 11:22:46;;;;;;;5.32;2.90;;;;;;;;;;10520840;28;20724;-67
2021/05/30 11:27:49;;;;;;;5.32;3.00;;;;;;;;;;10523530;28;20210;-67
2021/05/30 11:32:52;;;;;;;6.18;3.40;;;;;;;;;;10524799;28;20264;-67
2021/05/30 11:37:55;;;;;;;5.30;3.13;;;;;;;;;;10525498;28;20188;-67
2021/05/30 11:42:57;;;;;;;4.55;2.75;;;;;;;;;;10529186;28;20208;-66
2021/05/30 11:48:03;;;;;;;5.10;3.20;;;;;;;;;;10513580;28;20206;-68
2021/05/30 11:53:23;;;;;;;5.28;2.90;;;;;;;;;;10531147;28;20286;-68
2021/05/30 11:58:25;;;;;;;4.90;3.05;;;;;;;;;;10521226;28;20191;-67
2021/05/30 12:03:28;;;;;;;6.35;3.33;;;;;;;;;;10526888;28;20834;-67
2021/05/30 12:08:31;;;;;;;6.03;2.90;;;;;;;;;;10507216;28;20298;-68
2021/05/30 12:13:33;;;;;;;4.55;2.63;;;;;;;;;;10524308;28;20728;-69
2021/05/30 12:18:48;;;;;;;7.28;4.40;;;;;;;;;;10529064;28;20237;-67
2021/05/30 12:23:51;;;;;;;5.53;2.85;;;;;;;;;;10513682;28;20239;-68
2021/05/30 12:28:55;;;;;;;4.72;2.80;;;;;;;;;;10511329;28;20726;-68
2021/05/30 12:34:00;;;;;;;7.45;3.60;;;;;;;;;;10507283;28;20727;-69
2021/05/30 12:39:05;;;;;;;5.93;3.13;;;;;;;;;;10503262;28;20219;-68
2021/05/30 12:44:09;;;;;;;4.43;2.80;;;;;;;;;;10509161;28;20214;-67
2021/05/30 12:49:12;;;;;;;6.45;3.00;;;;;;;;;;10495143;28;20196;-69
2021/05/30 12:54:16;;;;;;;5.75;2.97;;;;;;;;;;10506018;28;20258;-69
2021/05/30 12:59:19;;;;;;;4.45;2.70;;;;;;;;;;10514960;28;20267;-69
2021/05/30 13:04:31;;;;;;;4.90;2.40;;;;;;;;;;10517902;28;20231;-68
2021/05/30 13:09:42;;;;;;;8.30;4.78;;;;;;;;;;10526451;28;20199;-68
2021/05/30 13:14:44;;;;;;;6.35;3.42;;;;;;;;;;10523086;28;20231;-69
2021/05/30 13:19:59;;;;;;;5.18;2.72;;;;;;;;;;10524189;28;20197;-69
2021/05/30 13:25:03;;;;;;;6.43;2.65;;;;;;;;;;10516431;28;20219;-68
2021/05/30 13:30:07;;;;;;;6.35;3.05;;;;;;;;;;10510870;28;20230;-67
2021/05/30 13:35:09;;;;;;;5.22;3.03;;;;;;;;;;10505682;28;20215;-68
2021/05/30 13:40:13;;;;;;;5.78;2.50;;;;;;;;;;10524671;28;20253;-68
2021/05/30 13:45:15;;;;;;;5.70;3.13;;;;;;;;;;10535781;28;20211;-68
2021/05/30 13:50:17;;;;;;;4.70;2.80;;;;;;;;;;10524266;28;20219;-68
2021/05/30 13:55:20;;;;;;;5.15;2.70;;;;;;;;;;10516183;28;20221;-69
2021/05/30 14:00:22;;;;;;;5.35;2.92;;;;;;;;;;10524027;28;20196;-68
2021/05/30 14:05:24;;;;;;;4.18;2.70;;;;;;;;;;10525275;28;20269;-68
2021/05/30 14:10:27;;;;;;;4.32;2.58;;;;;;;;;;10522266;28;20321;-68
2021/05/30 14:15:29;;;;;;;4.72;3.00;;;;;;;;;;10526923;28;20650;-66
2021/05/30 14:20:33;;;;;;;7.45;4.30;;;;;;;;;;10525531;28;20197;-68
2021/05/30 14:25:36;;;;;;;4.35;2.75;;;;;;;;;;10531752;28;20219;-68
2021/05/30 14:30:39;;;;;;;6.30;3.20;;;;;;;;;;10531254;28;20615;-68
2021/05/30 14:35:41;;;;;;;8.45;4.15;;;;;;;;;;10529137;28;20288;-67
2021/05/30 14:40:44;;;;;;;6.93;3.13;;;;;;;;;;10521681;28;20728;-67
2021/05/30 14:45:46;;;;;;;7.82;3.97;;;;;;;;;;10529351;28;20217;-67
2021/05/30 14:50:49;;;;;;;4.97;2.85;;;;;;;;;;10525550;28;20274;-68
2021/05/30 14:55:51;;;;;;;6.72;3.42;;;;;;;;;;10525128;28;20290;-67
2021/05/30 15:00:54;;;;;;;6.70;3.38;;;;;;;;;;10525193;28;20273;-67
2021/05/30 15:05:58;;;;;;;6.50;3.67;;;;;;;;;;10518826;28;20222;-68
2021/05/30 15:11:01;;;;;;;5.83;2.70;;;;;;;;;;10508830;28;20291;-68
2021/05/30 15:16:04;;;;;;;6.00;2.50;;;;;;;;;;10517432;28;20568;-68
2021/05/30 15:21:06;;;;;;;4.93;2.42;;;;;;;;;;10529520;28;20187;-67
2021/05/30 15:26:09;;;;;;;3.70;2.37;;;;;;;;;;10526121;28;20294;-68
2021/05/30 15:31:11;;;;;;;6.47;3.60;;;;;;;;;;10525717;28;20203;-67
2021/05/30 15:36:16;;;;;;;5.53;2.43;;;;;;;;;;10527116;28;20286;-68
2021/05/30 15:41:20;;;;;;;5.33;2.60;;;;;;;;;;10525740;28;20188;-66
2021/05/30 15:46:22;;;;;;;5.43;2.30;;;;;;;;;;10526164;28;20284;-66
2021/05/30 15:51:27;;;;;;;3.93;2.23;;;;;;;;;;10525623;28;20203;-67
2021/05/30 15:56:30;;;;;;;6.03;2.40;;;;;;;;;;10520105;28;20215;-68
2021/05/30 16:01:33;;;;;;;6.67;3.30;;;;;;;;;;10524652;28;20196;-68
2021/05/30 16:06:35;;;;;;;7.40;3.50;;;;;;;;;;10520917;28;20224;-68
2021/05/30 16:11:38;;;;;;;7.00;3.87;;;;;;;;;;10515636;28;20219;-69
2021/05/30 16:16:40;;;;;;;6.37;2.70;;;;;;;;;;10518510;28;20742;-68
2021/05/30 16:21:43;;;;;;;5.40;2.67;;;;;;;;;;10516842;28;20267;-69
2021/05/30 16:26:45;;;;;;;5.93;2.50;;;;;;;;;;10521412;28;20283;-67
2021/05/30 16:31:48;;;;;;;5.37;2.20;;;;;;;;;;10522539;28;20207;-67
2021/05/30 16:36:50;;;;;;;6.00;2.40;;;;;;;;;;10520163;28;20196;-66
2021/05/30 16:41:53;;;;;;;5.00;2.20;;;;;;;;;;10520246;28;20192;-67
2021/05/30 16:46:55;;;;;;;4.77;2.47;;;;;;;;;;10516194;28;20195;-67
2021/05/30 16:51:57;;;;;;;5.40;2.83;;;;;;;;;;10524297;28;20601;-69
2021/05/30 16:57:00;;;;;;;5.93;2.30;;;;;;;;;;10522601;28;20706;-68
2021/05/30 17:02:03;;;;;;;5.47;2.53;;;;;;;;;;10524467;28;20285;-69
2021/05/30 17:07:05;;;;;;;4.50;2.20;;;;;;;;;;10519635;28;20257;-67
2021/05/30 17:12:09;;;;;;;5.80;2.60;;;;;;;;;;10519632;28;20247;-68
2021/05/30 17:17:12;;;;;;;5.97;2.43;;;;;;;;;;10515722;28;20282;-68
2021/05/30 17:22:14;;;;;;;4.30;2.33;;;;;;;;;;10523550;28;20306;-68
2021/05/30 17:27:17;;;;;;;4.40;2.37;;;;;;;;;;10519526;28;20667;-69
2021/05/30 17:32:19;;;;;;;4.87;2.50;;;;;;;;;;10522739;28;20294;-67
2021/05/30 17:37:21;;;;;;;8.40;3.47;;;;;;;;;;10508299;28;20219;-68
2021/05/30 17:42:26;;;;;;;5.43;2.27;;;;;;;;;;10517611;28;20697;-68
2021/05/30 17:47:28;;;;;;;5.23;2.87;;;;;;;;;;10530020;28;20188;-68
2021/05/30 17:52:30;;;;;;;4.73;2.43;;;;;;;;;;10508031;28;20771;-67
2021/05/30 17:57:33;;;;;;;4.70;2.50;;;;;;;;;;10504342;28;20196;-68
2021/05/30 18:02:36;;;;;;;4.87;2.40;;;;;;;;;;10530720;28;20716;-68
2021/05/30 18:08:12;;;;;;;6.70;2.40;;;;;;;;;;10522182;28;20203;-69
2021/05/30 18:13:01;;;;;;;5.70;2.40;;;;;;;;;;10529215;28;20613;-69
2021/05/30 18:18:03;;;;;;;5.50;2.20;;;;;;;;;;10517391;28;21158;-69
2021/05/30 18:23:06;;;;;;;4.77;2.33;;;;;;;;;;10521431;28;20232;-68
2021/05/30 18:28:09;;;;;;;6.77;2.70;;;;;;;;;;10517927;28;20219;-67
2021/05/30 18:33:11;;;;;;;6.30;2.50;;;;;;;;;;10528494;28;20227;-67
2021/05/30 18:38:13;;;;;;;4.43;2.50;;;;;;;;;;10528389;28;20185;-67
2021/05/30 18:43:17;;;;;;;5.17;2.47;;;;;;;;;;10521417;28;20204;-67
2021/05/30 18:48:19;;;;;;;5.03;2.30;;;;;;;;;;10532338;28;20192;-68
2021/05/30 18:53:21;;;;;;;6.37;2.40;;;;;;;;;;10517205;28;20278;-67
2021/05/30 18:58:24;;;;;;;4.80;2.50;;;;;;;;;;10526253;28;20198;-69
2021/05/30 19:03:26;;;;;;;5.87;2.53;;;;;;;;;;10516570;28;20211;-67
2021/05/30 19:08:28;;;;;;;5.90;2.63;;;;;;;;;;10522186;28;20275;-68
2021/05/30 19:13:31;;;;;;;5.27;2.60;;;;;;;;;;10529132;28;20265;-67
2021/05/30 19:18:34;;;;;;;5.90;2.57;;;;;;;;;;10524544;28;20195;-68
2021/05/30 19:23:36;;;;;;;6.97;2.70;;;;;;;;;;10523991;28;20291;-67
2021/05/30 19:28:40;;;;;;;8.40;2.53;;;;;;;;;;10529712;28;20720;-66
2021/05/30 19:33:44;;;;;;;5.87;2.63;;;;;;;;;;10523825;28;20436;-67
2021/05/30 19:38:46;;;;;;;7.27;2.60;;;;;;;;;;10517141;28;20180;-67
2021/05/30 19:43:50;;;;;;;4.83;2.53;;;;;;;;;;10517089;28;20215;-68
2021/05/30 19:48:52;;;;;;;5.10;2.40;;;;;;;;;;10520982;28;20192;-68
2021/05/30 19:53:54;;;;;;;6.77;2.77;;;;;;;;;;10517167;28;20216;-68
2021/05/30 19:58:57;;;;;;;9.37;2.53;;;;;;;;;;10519473;28;20279;-69
2021/05/30 20:03:59;;;;;;;6.20;2.50;;;;;;;;;;10521287;28;20269;-67
2021/05/30 20:09:02;;;;;;;6.00;2.93;;;;;;;;;;10523460;28;20748;-68
2021/05/30 20:14:05;;;;;;;8.20;3.00;;;;;;;;;;10527098;28;20234;-68
2021/05/30 20:19:08;;;;;;;7.27;3.43;;;;;;;;;;10523728;28;20196;-68
2021/05/30 20:24:10;;;;;;;7.18;3.10;;;;;;;;;;10519929;28;20463;-69
2021/05/30 20:29:24;;;;;;;7.50;2.80;;;;;;;;;;10517346;28;20237;-70
2021/05/30 20:34:27;;;;;;;8.23;3.00;;;;;;;;;;10524169;28;20246;-67
2021/05/30 20:39:29;;;;;;;6.33;2.80;;;;;;;;;;10523525;28;20504;-67
2021/05/30 20:44:32;;;;;;;5.10;2.50;;;;;;;;;;10520526;28;20199;-66
2021/05/30 20:49:34;;;;;;;6.23;2.90;;;;;;;;;;10518386;28;20256;-67
2021/05/30 20:54:38;;;;;;;8.10;3.57;;;;;;;;;;10522147;28;20314;-68
2021/05/30 20:59:41;;;;;;;5.80;2.70;;;;;;;;;;10526350;28;20602;-68
2021/05/30 21:04:43;;;;;;;5.70;2.60;;;;;;;;;;10523315;28;20246;-68
2021/05/30 21:09:45;;;;;;;10.37;4.83;;;;;;;;;;10527684;28;20601;-68
2021/05/30 21:14:48;;;;;;;5.63;2.40;;;;;;;;;;10522157;28;20219;-67
2021/05/30 21:19:51;;;;;;;4.53;2.20;;;;;;;;;;10524736;28;20607;-68
2021/05/30 21:24:53;;;;;;;5.03;2.33;;;;;;;;;;10522752;28;20246;-70
2021/05/30 21:29:55;;;;;;;6.27;2.40;;;;;;;;;;10521799;28;20223;-68
2021/05/30 21:34:58;;;;;;;6.87;2.60;;;;;;;;;;10519370;28;20211;-68
2021/05/30 21:40:00;;;;;;;6.23;2.30;;;;;;;;;;10523062;28;20245;-68
2021/05/30 21:45:03;;;;;;;3.43;1.90;;;;;;;;;;10519367;28;20199;-67
2021/05/30 21:50:06;;;;;;;6.20;2.33;;;;;;;;;;10514663;28;20332;-66
2021/05/30 21:55:09;;;;;;;5.80;2.53;;;;;;;;;;10515067;28;20215;-66
2021/05/30 22:00:13;;;;;;;5.57;2.50;;;;;;;;;;10520586;28;20567;-67
2021/05/30 22:05:16;;;;;;;5.13;2.40;;;;;;;;;;10522010;28;20238;-67
2021/05/30 22:10:19;;;;;;;6.37;3.23;;;;;;;;;;10529832;28;20196;-66
2021/05/30 22:15:43;;;;;;;7.40;2.67;;;;;;;;;;10526553;28;20222;-67
2021/05/30 22:20:45;;;;;;;5.13;2.60;;;;;;;;;;10528014;28;20257;-66
2021/05/30 22:25:48;;;;;;;7.67;2.70;;;;;;;;;;10525813;28;20208;-67
2021/05/30 22:30:51;;;;;;;6.23;2.73;;;;;;;;;;10529277;28;20279;-67
2021/05/30 22:35:53;;;;;;;5.63;2.67;;;;;;;;;;10528376;28;20387;-67
2021/05/30 22:40:55;;;;;;;5.67;2.57;;;;;;;;;;10526863;28;20198;-67
2021/05/30 22:45:58;;;;;;;5.73;2.40;;;;;;;;;;10527642;28;20302;-67
2021/05/30 22:51:00;;;;;;;6.13;2.60;;;;;;;;;;10527381;28;20196;-67
2021/05/30 22:56:03;;;;;;;5.87;2.73;;;;;;;;;;10530069;28;20265;-67
2021/05/30 23:01:07;;;;;;;6.73;2.70;;;;;;;;;;10528607;28;20192;-67
2021/05/30 23:06:09;;;;;;;6.43;2.90;;;;;;;;;;10528742;28;20216;-66
2021/05/30 23:11:11;;;;;;;8.83;2.87;;;;;;;;;;10523125;28;20203;-67
2021/05/30 23:16:15;;;;;;;6.90;3.00;;;;;;;;;;10536976;28;20215;-67
2021/05/30 23:21:17;;;;;;;5.63;2.50;;;;;;;;;;10522201;28;20196;-67
2021/05/30 23:26:19;;;;;;;7.57;2.90;;;;;;;;;;10510685;28;20301;-68
2021/05/30 23:31:22;;;;;;;5.70;2.87;;;;;;;;;;10510622;28;20223;-67
2021/05/30 23:36:24;;;;;;;5.83;2.80;;;;;;;;;;10529296;28;20235;-67
2021/05/30 23:41:28;;;;;;;5.60;2.50;;;;;;;;;;10523790;28;20210;-67
2021/05/30 23:46:31;;;;;;;7.60;2.80;;;;;;;;;;10526996;28;20235;-66
2021/05/30 23:51:33;;;;;;;7.30;2.90;;;;;;;;;;10525819;28;20263;-67
2021/05/30 23:56:35;;;;;;;6.70;3.03;;;;;;;;;;10526599;28;20277;-68
